Kezdőlap
METAR-TAF:

METAR-TAF

Repülőterek :

Melun, Franciaország

földrajzi szélesség: 48-37N, földrajzi hosszúság: 002-41E, magasság: 95 m

Jelenlegi meteorológiai megfigyelések

A jelentés 26 perccel ezelõtt készült, 08:30 UTC
Déli szél 8 kt
Hőmérséklet 26°C
Páratartalom 61%
Légköri nyomás 1013 hPa
Látótávolság 10 km, vagy több
felhőtlen 1500 m magasságban, és nincs gomolyfelhõ

METAR: LFPM 130830Z AUTO 19008KT CAVOK 26/18 Q1013

Idő: 10:56 (08:56 UTC)


TAF: hiányzik

Meteorológiai megfigyelések és előrejelzések több, mint 4000 repülőtéren (METAR és TAF jelentéseket).

A térképen piros és sárga pontok jelzik az elérhető meteorológiai állomásokat.

Mozgassa az egeret a pont fölött, hogy megjelenjen az állomás neve.

Azután kattintson az időjárási megfigyelések és előrejelzések megtekintéséhez.

A térkép megváltoztatása: kattintson a fekete keresztel jelölt zöld gombra ráközelítéshez, a vonallal jelölt zöld gombra távolításhoz, vagy a zöld nyilakra a szomszédos térképek eléréséhez.


METAR-TAF: